Time;durP1;ratioP1;P1;durP2;ratioP2;P2;SDS_P1;SDS_P2;PMS_P1;PMS_P2;Temp;Humidity;BMP_temperature;BMP_pressure;BME280_temperature;BME280_humidity;BME280_pressure;Samples;Min_cycle;Max_cycle;Signal;HPM_P1;HPM_P2
2023/09/24 00:00:10;;;;;;;4.37;1.57;;;19.30;52.00;;;;;;5113740;27;20181;-79
2023/09/24 00:02:38;;;;;;;2.77;1.50;;;19.50;52.50;;;;;;5096493;28;20186;-79
2023/09/24 00:05:09;;;;;;;5.87;2.00;;;19.50;52.80;;;;;;5117934;27;20562;-77
2023/09/24 00:07:37;;;;;;;6.20;1.87;;;19.50;52.70;;;;;;5115222;27;20660;-76
2023/09/24 00:10:05;;;;;;;5.03;2.30;;;19.70;52.80;;;;;;5118110;27;20196;-78
2023/09/24 00:12:32;;;;;;;4.97;2.10;;;19.60;54.00;;;;;;5120339;28;20242;-78
2023/09/24 00:15:00;;;;;;;3.53;1.97;;;19.60;53.50;;;;;;5116051;28;20266;-76
2023/09/24 00:17:27;;;;;;;2.20;1.43;;;19.60;53.10;;;;;;5120635;27;20216;-78
2023/09/24 00:19:54;;;;;;;3.63;1.33;;;19.60;53.00;;;;;;5127670;27;20173;-78
2023/09/24 00:22:22;;;;;;;2.77;1.60;;;19.30;52.60;;;;;;5126778;27;20178;-79
2023/09/24 00:24:49;;;;;;;3.67;1.30;;;19.50;52.00;;;;;;5125226;27;20189;-80
2023/09/24 00:27:17;;;;;;;2.70;1.33;;;19.50;52.10;;;;;;5108224;27;20197;-81
2023/09/24 00:29:44;;;;;;;1.83;1.13;;;19.50;52.10;;;;;;5121847;27;20185;-75
2023/09/24 00:32:11;;;;;;;4.13;1.27;;;19.30;52.20;;;;;;5125004;27;20635;-76
2023/09/24 00:34:39;;;;;;;2.47;1.13;;;19.30;51.00;;;;;;5120071;27;20266;-80
2023/09/24 00:37:06;;;;;;;2.67;1.30;;;19.30;50.90;;;;;;5117310;27;20185;-79
2023/09/24 00:39:33;;;;;;;3.37;1.40;;;19.30;50.90;;;;;;5105292;27;20542;-81
2023/09/24 00:42:05;;;;;;;1.83;1.00;;;19.30;51.00;;;;;;5119761;27;20177;-77
2023/09/24 00:44:32;;;;;;;2.83;1.00;;;19.20;50.20;;;;;;5121079;27;20189;-79
2023/09/24 00:46:59;;;;;;;2.43;1.03;;;19.00;50.50;;;;;;5126409;27;20213;-80
2023/09/24 00:49:29;;;;;;;3.23;1.00;;;18.90;51.10;;;;;;5119498;27;20205;-79
2023/09/24 00:51:58;;;;;;;2.43;1.20;;;19.00;51.60;;;;;;5121843;27;20263;-78
2023/09/24 00:54:25;;;;;;;3.87;1.00;;;19.10;50.50;;;;;;5118901;27;20186;-79
2023/09/24 00:56:58;;;;;;;2.43;0.90;;;19.00;50.70;;;;;;5126498;27;20181;-81
2023/09/24 00:59:28;;;;;;;1.57;0.83;;;19.00;49.50;;;;;;5120293;27;20551;-80
2023/09/24 01:01:57;;;;;;;1.37;0.83;;;19.00;49.30;;;;;;5126582;27;20182;-76
2023/09/24 01:04:24;;;;;;;3.63;1.30;;;19.30;49.10;;;;;;5119067;27;20280;-79
2023/09/24 01:06:52;;;;;;;1.00;0.80;;;19.30;48.70;;;;;;5120060;27;20217;-76
2023/09/24 01:09:19;;;;;;;5.40;1.87;;;19.20;48.90;;;;;;5117623;27;20604;-78
2023/09/24 01:11:54;;;;;;;1.50;0.77;;;19.30;49.30;;;;;;5123367;27;20217;-76
2023/09/24 01:14:23;;;;;;;2.50;1.20;;;19.50;49.10;;;;;;5121026;27;20193;-77
2023/09/24 01:16:51;;;;;;;2.47;1.00;;;19.60;49.00;;;;;;5124700;27;20211;-77
2023/09/24 01:19:20;;;;;;;1.57;0.83;;;19.60;48.40;;;;;;5121743;27;20197;-77
2023/09/24 01:21:50;;;;;;;1.83;0.90;;;19.20;49.20;;;;;;5124390;27;20254;-74
2023/09/24 01:24:17;;;;;;;3.37;0.87;;;19.40;48.90;;;;;;5121503;27;20220;-75
2023/09/24 01:26:46;;;;;;;7.07;1.10;;;19.60;48.50;;;;;;5120944;27;20210;-75
2023/09/24 01:29:14;;;;;;;3.13;0.80;;;19.80;48.20;;;;;;5119647;27;20666;-80
2023/09/24 01:31:41;;;;;;;1.37;0.70;;;20.00;46.60;;;;;;5119066;27;20205;-78
2023/09/24 01:34:10;;;;;;;1.07;0.90;;;20.20;46.10;;;;;;5117578;27;20316;-78
2023/09/24 01:36:38;;;;;;;1.93;1.20;;;20.20;46.90;;;;;;5116775;27;20193;-77
2023/09/24 01:39:05;;;;;;;2.57;1.00;;;20.90;45.50;;;;;;5120598;27;20196;-74
2023/09/24 01:41:35;;;;;;;1.97;0.80;;;20.90;45.40;;;;;;5120501;27;20190;-79
2023/09/24 01:44:02;;;;;;;2.03;1.20;;;21.00;44.30;;;;;;5120137;27;20177;-76
2023/09/24 01:46:30;;;;;;;2.87;0.90;;;21.50;44.00;;;;;;5113426;27;20201;-74
2023/09/24 01:48:59;;;;;;;2.20;0.90;;;21.80;43.20;;;;;;5120393;27;20185;-76
2023/09/24 01:51:26;;;;;;;2.97;0.80;;;21.40;44.20;;;;;;5119272;27;20182;-75
2023/09/24 01:53:53;;;;;;;4.93;1.00;;;21.30;44.10;;;;;;5117111;27;20181;-79
2023/09/24 01:56:23;;;;;;;3.87;0.87;;;21.20;44.90;;;;;;5118220;27;20174;-74
2023/09/24 01:58:51;;;;;;;2.57;0.97;;;21.30;43.10;;;;;;5120185;27;20206;-74
2023/09/24 02:01:19;;;;;;;2.17;0.70;;;21.30;43.90;;;;;;5115974;27;20725;-73
2023/09/24 02:03:46;;;;;;;1.70;0.80;;;21.90;42.20;;;;;;5114608;27;20209;-72
2023/09/24 02:06:16;;;;;;;1.73;0.90;;;21.30;43.40;;;;;;5116899;27;20178;-74
2023/09/24 02:08:44;;;;;;;3.33;1.17;;;21.90;42.70;;;;;;5122351;27;20284;-70
2023/09/24 02:11:11;;;;;;;4.27;0.87;;;22.00;42.60;;;;;;5115850;27;20209;-75
2023/09/24 02:13:39;;;;;;;2.47;0.77;;;21.60;43.00;;;;;;5122846;27;20207;-73
2023/09/24 02:16:07;;;;;;;3.57;1.03;;;21.50;42.70;;;;;;5114699;27;20185;-76
2023/09/24 02:18:36;;;;;;;1.93;0.80;;;21.70;43.30;;;;;;5114609;27;20578;-72
2023/09/24 02:21:12;;;;;;;2.33;0.70;;;21.80;42.10;;;;;;5114652;27;20182;-71
2023/09/24 02:23:39;;;;;;;1.93;0.97;;;21.60;42.40;;;;;;5118665;27;20525;-75
2023/09/24 02:26:09;;;;;;;2.47;0.83;;;21.80;42.30;;;;;;5115634;27;20178;-75
2023/09/24 02:28:40;;;;;;;1.60;0.67;;;21.80;41.60;;;;;;5118430;27;20196;-75
2023/09/24 02:31:12;;;;;;;2.13;0.93;;;21.30;43.60;;;;;;5114618;27;20185;-74
2023/09/24 02:33:39;;;;;;;1.90;0.90;;;21.90;42.70;;;;;;5118544;27;20231;-72
2023/09/24 02:36:08;;;;;;;4.00;0.77;;;22.00;42.50;;;;;;5117470;27;20652;-74
2023/09/24 02:38:36;;;;;;;1.67;0.70;;;22.10;42.00;;;;;;5117590;27;20217;-73
2023/09/24 02:41:04;;;;;;;0.97;0.63;;;22.30;41.70;;;;;;5116653;27;20265;-70
2023/09/24 02:43:32;;;;;;;2.30;0.90;;;22.30;41.60;;;;;;5114451;27;20180;-72
2023/09/24 02:46:00;;;;;;;1.37;0.70;;;22.20;42.40;;;;;;5108522;27;20656;-75
2023/09/24 02:48:27;;;;;;;1.10;0.70;;;22.30;41.70;;;;;;5111278;27;20219;-75
2023/09/24 02:50:54;;;;;;;1.63;0.77;;;22.20;41.60;;;;;;5115296;27;20201;-73
2023/09/24 02:53:22;;;;;;;1.83;0.80;;;22.30;42.20;;;;;;5116299;27;20188;-75
2023/09/24 02:55:49;;;;;;;2.07;0.80;;;22.80;40.80;;;;;;5114151;27;20674;-76
2023/09/24 02:58:18;;;;;;;3.23;0.90;;;22.40;40.90;;;;;;5117086;27;20596;-76
2023/09/24 03:00:45;;;;;;;1.00;0.60;;;22.50;40.90;;;;;;5117444;27;20223;-71
2023/09/24 03:03:15;;;;;;;2.47;0.70;;;23.00;40.70;;;;;;5116787;27;20193;-72
2023/09/24 03:05:43;;;;;;;2.90;0.93;;;22.80;39.80;;;;;;5111990;27;20189;-74
2023/09/24 03:08:10;;;;;;;1.67;0.73;;;23.20;40.50;;;;;;5114444;27;20214;-73
2023/09/24 03:10:37;;;;;;;1.73;0.77;;;22.60;41.10;;;;;;5112436;27;20179;-74
2023/09/24 03:13:05;;;;;;;1.40;0.77;;;22.30;41.30;;;;;;5114281;27;20185;-75
2023/09/24 03:15:33;;;;;;;1.50;0.77;;;22.70;40.70;;;;;;5109848;27;20182;-77
2023/09/24 03:18:01;;;;;;;2.07;0.80;;;22.50;40.50;;;;;;5110481;27;20209;-73
2023/09/24 03:20:29;;;;;;;1.43;0.70;;;22.30;41.60;;;;;;5111846;27;20174;-75
2023/09/24 03:23:01;;;;;;;3.23;0.80;;;22.80;40.80;;;;;;5115205;27;20189;-75
2023/09/24 03:25:29;;;;;;;2.33;1.00;;;23.10;40.70;;;;;;5119083;27;20197;-75
2023/09/24 03:28:00;;;;;;;0.73;0.70;;;23.50;39.40;;;;;;5107687;28;20210;-73
2023/09/24 03:30:29;;;;;;;1.27;0.63;;;23.70;39.00;;;;;;5103196;27;20181;-75
2023/09/24 03:32:57;;;;;;;1.60;0.67;;;22.80;39.90;;;;;;5107464;27;20193;-76
2023/09/24 03:35:26;;;;;;;2.73;0.70;;;23.30;39.30;;;;;;5113584;27;20564;-75
2023/09/24 03:37:55;;;;;;;2.03;0.80;;;23.10;39.30;;;;;;5114458;27;20683;-72
2023/09/24 03:40:26;;;;;;;2.27;0.70;;;22.80;40.10;;;;;;5118679;27;20213;-73
2023/09/24 03:42:54;;;;;;;2.03;0.80;;;22.80;40.20;;;;;;5114246;27;20280;-75
2023/09/24 03:45:24;;;;;;;0.77;0.60;;;22.90;40.00;;;;;;5118138;27;20177;-72
2023/09/24 03:47:54;;;;;;;1.33;0.50;;;22.90;39.50;;;;;;5114238;27;20222;-74
2023/09/24 03:50:22;;;;;;;1.27;0.60;;;23.00;39.80;;;;;;5118895;27;20182;-73
2023/09/24 03:52:50;;;;;;;2.47;0.63;;;23.30;39.10;;;;;;5114994;27;20220;-73
2023/09/24 03:55:19;;;;;;;0.57;0.47;;;23.80;38.10;;;;;;5116598;27;20197;-74
2023/09/24 03:57:47;;;;;;;3.70;0.60;;;23.90;37.80;;;;;;5115023;27;20334;-72
2023/09/24 04:00:21;;;;;;;1.47;0.57;;;24.00;37.70;;;;;;5116388;27;20232;-73
2023/09/24 04:02:49;;;;;;;2.50;0.70;;;24.00;37.90;;;;;;5114871;27;20190;-73
2023/09/24 04:05:18;;;;;;;2.10;0.60;;;23.40;38.20;;;;;;5116303;27;20182;-72
2023/09/24 04:07:49;;;;;;;2.97;1.20;;;23.70;38.60;;;;;;5114629;27;20294;-72
2023/09/24 04:10:19;;;;;;;5.20;2.27;;;23.70;37.80;;;;;;5116004;28;20272;-73
2023/09/24 04:12:50;;;;;;;1.00;0.90;;;23.50;38.90;;;;;;5115038;28;20561;-74
2023/09/24 04:15:19;;;;;;;2.37;0.70;;;23.80;38.20;;;;;;5116110;28;20186;-71
2023/09/24 04:17:47;;;;;;;1.00;0.50;;;23.40;38.30;;;;;;5110720;28;20652;-72
2023/09/24 04:20:15;;;;;;;1.17;0.60;;;23.80;37.60;;;;;;5116048;28;20182;-73
2023/09/24 04:22:45;;;;;;;1.73;0.57;;;23.70;38.00;;;;;;5114874;28;20651;-72
2023/09/24 04:25:24;;;;;;;1.37;0.60;;;23.70;37.50;;;;;;5115477;28;20690;-73
2023/09/24 04:27:51;;;;;;;1.20;0.50;;;24.00;37.20;;;;;;5113178;27;20273;-73
2023/09/24 04:30:20;;;;;;;1.00;0.70;;;23.90;37.60;;;;;;5115713;28;20189;-71
2023/09/24 04:32:54;;;;;;;2.10;0.70;;;24.60;36.50;;;;;;5115283;28;20712;-74
2023/09/24 04:35:23;;;;;;;3.40;0.80;;;24.00;37.80;;;;;;5115422;28;20229;-74
2023/09/24 04:37:51;;;;;;;3.07;0.67;;;24.30;37.10;;;;;;5114468;28;20266;-73
2023/09/24 04:40:19;;;;;;;1.57;0.70;;;24.50;36.90;;;;;;5116420;28;20282;-72
2023/09/24 04:42:47;;;;;;;2.40;0.57;;;24.70;35.80;;;;;;5115253;27;20182;-75
2023/09/24 04:45:17;;;;;;;3.17;0.90;;;24.60;36.30;;;;;;5116049;28;20558;-73
2023/09/24 04:47:45;;;;;;;1.57;0.60;;;24.30;37.40;;;;;;5113171;28;20220;-72
2023/09/24 04:50:13;;;;;;;1.53;0.67;;;24.00;37.60;;;;;;5114050;27;20257;-74
2023/09/24 04:52:47;;;;;;;2.10;0.70;;;24.10;37.60;;;;;;5114542;28;20198;-74
2023/09/24 04:55:15;;;;;;;0.70;0.40;;;24.00;38.10;;;;;;5114429;28;20189;-72
2023/09/24 04:57:47;;;;;;;1.93;0.60;;;24.30;37.90;;;;;;5115134;27;20185;-73
2023/09/24 05:00:16;;;;;;;1.53;0.70;;;24.40;36.90;;;;;;5114574;28;20186;-74
2023/09/24 05:02:43;;;;;;;1.13;0.57;;;23.90;38.10;;;;;;5117394;27;20177;-73
2023/09/24 05:05:11;;;;;;;1.23;0.50;;;24.30;37.90;;;;;;5116444;27;20222;-74
2023/09/24 05:07:38;;;;;;;1.70;0.67;;;24.80;37.30;;;;;;5119480;27;20715;-71
2023/09/24 05:10:06;;;;;;;2.37;1.00;;;24.80;37.00;;;;;;5116584;27;20210;-76
2023/09/24 05:12:35;;;;;;;3.47;0.80;;;25.00;36.50;;;;;;5113401;27;20608;-72
2023/09/24 05:15:03;;;;;;;2.27;0.60;;;24.60;37.00;;;;;;5116471;27;20203;-73
2023/09/24 05:17:33;;;;;;;2.57;0.70;;;24.60;37.30;;;;;;5120432;27;20190;-74
2023/09/24 05:20:02;;;;;;;4.17;1.27;;;24.30;38.30;;;;;;5116356;27;20202;-74
2023/09/24 05:22:30;;;;;;;2.50;0.87;;;24.80;37.30;;;;;;5117382;27;20196;-73
2023/09/24 05:24:57;;;;;;;1.50;0.60;;;24.60;37.70;;;;;;5115969;27;20243;-74
2023/09/24 05:27:26;;;;;;;4.63;0.67;;;24.80;36.90;;;;;;5118771;27;20201;-74
2023/09/24 05:29:53;;;;;;;1.47;0.60;;;24.80;36.90;;;;;;5112122;27;20182;-74
2023/09/24 05:32:21;;;;;;;1.70;0.70;;;25.10;36.70;;;;;;5119115;27;20182;-73
2023/09/24 05:34:52;;;;;;;1.47;0.80;;;24.90;36.90;;;;;;5112849;27;20636;-71
2023/09/24 05:37:20;;;;;;;3.37;1.13;;;25.50;35.90;;;;;;5119703;27;20664;-73
2023/09/24 05:39:47;;;;;;;2.20;0.73;;;24.70;37.60;;;;;;5120981;27;20223;-73
2023/09/24 05:42:14;;;;;;;4.57;0.70;;;24.60;38.20;;;;;;5117799;27;20220;-74
2023/09/24 05:44:42;;;;;;;1.03;0.70;;;24.70;37.40;;;;;;5113038;27;20213;-73
2023/09/24 05:47:10;;;;;;;1.23;0.50;;;24.60;37.70;;;;;;5117153;27;20348;-73
2023/09/24 05:49:38;;;;;;;3.47;0.60;;;25.30;36.20;;;;;;5115641;27;20640;-73
2023/09/24 05:52:06;;;;;;;3.63;0.60;;;24.40;38.00;;;;;;5119232;27;20188;-72
2023/09/24 05:54:33;;;;;;;1.87;0.80;;;23.90;39.30;;;;;;5117469;27;20181;-72
2023/09/24 05:57:01;;;;;;;2.27;0.70;;;24.80;38.10;;;;;;5118900;27;20190;-75
2023/09/24 05:59:28;;;;;;;1.63;0.40;;;25.20;36.50;;;;;;5115176;27;20182;-73
2023/09/24 06:01:56;;;;;;;2.80;0.57;;;24.60;37.30;;;;;;5112861;27;20186;-71
2023/09/24 06:04:23;;;;;;;12.60;2.37;;;24.60;37.50;;;;;;5118225;27;20522;-74
2023/09/24 06:06:50;;;;;;;2.80;0.67;;;24.50;38.40;;;;;;5121771;27;20221;-73
2023/09/24 06:09:18;;;;;;;1.83;0.60;;;24.30;38.30;;;;;;5123475;27;20205;-73
2023/09/24 06:11:47;;;;;;;13.83;2.67;;;23.70;39.90;;;;;;5118620;27;20254;-73
2023/09/24 06:14:14;;;;;;;5.13;1.00;;;23.60;39.90;;;;;;5125372;27;20271;-72
2023/09/24 06:16:41;;;;;;;2.13;0.80;;;24.10;38.70;;;;;;5119081;27;20200;-72
2023/09/24 06:19:08;;;;;;;2.33;1.00;;;23.80;39.00;;;;;;5118844;27;20217;-72
2023/09/24 06:21:36;;;;;;;1.73;0.90;;;23.60;39.90;;;;;;5132656;27;20186;-71
2023/09/24 06:24:03;;;;;;;3.17;1.00;;;23.70;40.20;;;;;;5139552;27;20274;-70
2023/09/24 06:26:32;;;;;;;1.93;0.77;;;24.60;39.30;;;;;;5132230;27;20198;-72
2023/09/24 06:29:00;;;;;;;3.50;0.77;;;24.00;38.60;;;;;;5128779;27;20234;-74
2023/09/24 06:31:27;;;;;;;1.90;0.70;;;23.80;39.00;;;;;;5129178;27;20186;-72
2023/09/24 06:33:54;;;;;;;2.70;0.70;;;24.40;38.10;;;;;;5130250;27;20251;-72
2023/09/24 06:36:26;;;;;;;2.87;0.63;;;24.10;39.00;;;;;;5135976;27;20249;-71
2023/09/24 06:38:54;;;;;;;5.27;0.60;;;24.00;39.40;;;;;;5126860;27;20240;-73
2023/09/24 06:41:22;;;;;;;1.57;0.70;;;24.10;39.10;;;;;;5114549;27;20671;-74
2023/09/24 06:43:51;;;;;;;2.83;0.60;;;24.10;40.10;;;;;;5117236;27;20185;-74
2023/09/24 06:46:18;;;;;;;1.90;0.73;;;23.70;39.80;;;;;;5104488;28;20189;-72
2023/09/24 06:48:46;;;;;;;1.40;0.70;;;24.00;39.10;;;;;;5118938;27;20203;-73
2023/09/24 06:51:13;;;;;;;2.23;0.90;;;24.00;39.00;;;;;;5114298;27;20186;-71
2023/09/24 06:53:41;;;;;;;2.70;0.83;;;23.50;39.70;;;;;;5115055;27;20178;-73
2023/09/24 06:56:09;;;;;;;2.90;0.60;;;23.90;39.10;;;;;;5120064;27;20230;-73
2023/09/24 06:58:37;;;;;;;1.63;0.63;;;23.70;39.60;;;;;;5120106;27;20178;-74
2023/09/24 07:01:06;;;;;;;3.57;1.00;;;23.30;40.30;;;;;;5121837;27;20201;-73
2023/09/24 07:03:33;;;;;;;3.30;1.50;;;22.80;41.70;;;;;;5120353;27;20182;-74
2023/09/24 07:06:03;;;;;;;5.60;0.93;;;23.40;40.50;;;;;;5108464;27;21721;-73
2023/09/24 07:08:35;;;;;;;2.60;0.63;;;23.30;40.80;;;;;;5114242;27;20209;-73
2023/09/24 07:11:21;;;;;;;2.30;0.80;;;23.50;40.30;;;;;;5118710;27;20190;-74
2023/09/24 07:13:48;;;;;;;1.43;0.80;;;22.80;41.50;;;;;;5118238;27;20227;-71
2023/09/24 07:16:16;;;;;;;1.27;0.80;;;21.80;43.60;;;;;;5117890;27;20192;-72
2023/09/24 07:18:43;;;;;;;1.83;0.70;;;21.60;44.60;;;;;;5105689;27;20265;-71
2023/09/24 07:21:11;;;;;;;1.70;0.93;;;20.90;46.00;;;;;;5107592;27;20197;-73
2023/09/24 07:23:39;;;;;;;1.63;0.70;;;20.30;47.50;;;;;;5118294;27;20197;-71
2023/09/24 07:26:09;;;;;;;3.33;0.70;;;19.70;49.10;;;;;;5121500;27;20189;-73
2023/09/24 07:28:37;;;;;;;1.83;0.73;;;19.30;50.80;;;;;;5109251;27;20259;-73
2023/09/24 07:31:04;;;;;;;3.37;0.83;;;19.20;51.50;;;;;;5119276;27;20190;-73
2023/09/24 07:33:31;;;;;;;2.97;1.00;;;19.10;51.40;;;;;;5116842;27;20239;-74
2023/09/24 07:35:58;;;;;;;4.63;0.87;;;18.90;52.20;;;;;;5118632;27;20287;-72
2023/09/24 07:38:29;;;;;;;2.17;0.83;;;18.90;52.70;;;;;;5113321;27;20268;-73
2023/09/24 07:40:56;;;;;;;1.83;0.87;;;18.80;53.00;;;;;;5110668;27;20180;-74
2023/09/24 07:43:24;;;;;;;2.40;0.93;;;18.50;53.20;;;;;;5106636;27;20232;-74
2023/09/24 07:45:51;;;;;;;5.07;1.00;;;18.50;53.00;;;;;;5118822;27;20195;-72
2023/09/24 07:48:19;;;;;;;3.20;0.90;;;18.30;53.80;;;;;;5113482;27;20758;-72
2023/09/24 07:50:54;;;;;;;4.07;0.87;;;18.20;54.40;;;;;;5110574;27;20539;-73
2023/09/24 07:53:22;;;;;;;4.50;1.10;;;18.00;54.90;;;;;;5116013;27;20185;-73
2023/09/24 07:56:03;;;;;;;1.67;0.73;;;17.90;55.30;;;;;;5122038;27;20537;-73
2023/09/24 07:58:34;;;;;;;1.63;0.80;;;17.80;55.40;;;;;;5116319;27;20189;-75
2023/09/24 08:01:13;;;;;;;2.43;1.00;;;17.80;56.20;;;;;;5116980;27;20273;-72
2023/09/24 08:03:43;;;;;;;2.63;0.90;;;17.70;56.60;;;;;;5112121;27;20188;-77
2023/09/24 08:06:12;;;;;;;2.23;0.97;;;17.60;56.90;;;;;;5116673;27;20573;-74
2023/09/24 08:08:40;;;;;;;1.70;0.70;;;17.70;57.40;;;;;;5118427;27;20343;-75
2023/09/24 08:11:08;;;;;;;1.80;0.90;;;17.70;57.80;;;;;;5096789;28;20276;-75
2023/09/24 08:13:35;;;;;;;1.97;0.90;;;17.70;57.60;;;;;;5110729;28;20236;-74
2023/09/24 08:16:05;;;;;;;2.70;0.87;;;17.60;57.40;;;;;;5118699;27;20718;-75
2023/09/24 08:18:33;;;;;;;1.70;0.90;;;17.50;57.50;;;;;;5113315;28;20272;-74
2023/09/24 08:21:04;;;;;;;2.20;1.00;;;17.30;58.20;;;;;;5116361;28;20185;-76
2023/09/24 08:23:33;;;;;;;2.50;1.00;;;17.30;58.20;;;;;;5113217;27;20183;-76
2023/09/24 08:26:00;;;;;;;2.37;1.10;;;17.30;58.60;;;;;;5114396;28;20213;-75
2023/09/24 08:28:28;;;;;;;1.57;0.90;;;17.30;58.60;;;;;;5118129;28;20208;-74
2023/09/24 08:30:55;;;;;;;3.17;1.10;;;17.30;58.90;;;;;;5093332;28;20731;-73
2023/09/24 08:33:22;;;;;;;2.00;1.10;;;17.30;58.80;;;;;;5116053;28;20223;-75
2023/09/24 08:35:50;;;;;;;2.43;0.80;;;17.20;59.10;;;;;;5117638;28;20240;-75
2023/09/24 08:38:17;;;;;;;2.43;1.10;;;17.20;59.20;;;;;;5114039;27;20199;-75
2023/09/24 08:40:46;;;;;;;2.67;1.10;;;17.20;59.40;;;;;;5124139;27;20539;-75
2023/09/24 08:43:20;;;;;;;6.23;1.13;;;17.20;59.60;;;;;;5125357;27;21595;-76
2023/09/24 08:45:49;;;;;;;3.07;1.17;;;17.20;59.80;;;;;;5123673;27;20200;-75
2023/09/24 08:48:17;;;;;;;4.50;1.20;;;17.10;60.20;;;;;;5121154;27;20221;-75
2023/09/24 08:50:44;;;;;;;2.73;1.07;;;17.10;60.20;;;;;;5120159;27;20254;-74
2023/09/24 08:53:16;;;;;;;3.63;1.03;;;17.00;60.20;;;;;;5115314;27;20239;-73
2023/09/24 08:55:46;;;;;;;2.53;0.80;;;17.00;60.10;;;;;;5120919;27;20192;-72
2023/09/24 08:58:14;;;;;;;1.40;0.83;;;17.00;60.40;;;;;;5122038;27;20199;-72
2023/09/24 09:00:43;;;;;;;1.93;0.93;;;17.00;60.40;;;;;;5116468;27;20196;-72
2023/09/24 09:03:11;;;;;;;4.27;1.07;;;17.00;60.50;;;;;;5122559;27;20192;-73
2023/09/24 09:05:39;;;;;;;1.70;1.20;;;17.00;61.00;;;;;;5120792;27;20957;-74
2023/09/24 09:08:07;;;;;;;1.40;1.10;;;16.90;61.30;;;;;;5113547;27;20281;-75
2023/09/24 09:10:36;;;;;;;3.80;1.17;;;16.90;61.30;;;;;;5118471;27;20189;-74
2023/09/24 09:13:15;;;;;;;2.37;1.10;;;16.90;61.50;;;;;;5114844;27;20229;-73
2023/09/24 09:15:46;;;;;;;2.17;1.03;;;16.90;61.80;;;;;;5117399;27;20183;-72
2023/09/24 09:18:26;;;;;;;2.13;0.97;;;16.80;61.80;;;;;;5116061;27;20203;-73
2023/09/24 09:21:00;;;;;;;2.23;1.20;;;16.80;61.90;;;;;;5119662;27;20231;-75
2023/09/24 09:23:44;;;;;;;3.67;1.20;;;16.90;62.00;;;;;;5113648;27;20192;-74
2023/09/24 09:26:12;;;;;;;1.27;0.97;;;16.90;62.50;;;;;;5120483;27;20687;-75
2023/09/24 09:28:39;;;;;;;3.80;1.70;;;16.80;62.50;;;;;;5116129;27;20220;-74
2023/09/24 09:31:12;;;;;;;1.37;0.90;;;16.80;62.70;;;;;;5097142;28;20195;-75
2023/09/24 09:33:40;;;;;;;1.03;0.83;;;16.80;62.90;;;;;;5114058;27;20275;-73
2023/09/24 09:36:27;;;;;;;1.83;1.10;;;16.80;63.10;;;;;;5119004;27;21378;-74
2023/09/24 09:38:59;;;;;;;2.00;1.20;;;16.80;63.30;;;;;;5111804;27;20186;-74
2023/09/24 09:41:33;;;;;;;2.50;1.10;;;16.80;63.00;;;;;;5113892;27;20196;-74
2023/09/24 09:44:07;;;;;;;4.30;1.00;;;16.80;63.10;;;;;;5113626;27;20209;-73
2023/09/24 09:46:45;;;;;;;1.40;0.80;;;16.80;62.70;;;;;;5120429;27;20233;-74
2023/09/24 09:49:15;;;;;;;1.00;0.87;;;16.80;63.10;;;;;;5112752;27;20255;-75
2023/09/24 09:51:57;;;;;;;1.83;1.17;;;16.80;63.50;;;;;;5114366;27;20185;-74
2023/09/24 09:54:25;;;;;;;3.30;0.80;;;16.70;63.20;;;;;;5111853;27;20186;-72
2023/09/24 09:56:52;;;;;;;1.63;1.00;;;16.70;63.10;;;;;;5098058;27;20188;-75
2023/09/24 09:59:21;;;;;;;5.03;0.90;;;16.70;63.40;;;;;;5114801;27;20194;-73
2023/09/24 10:01:48;;;;;;;3.10;0.90;;;16.70;63.50;;;;;;5114482;27;20574;-75
2023/09/24 10:04:16;;;;;;;2.07;1.17;;;16.70;63.40;;;;;;5116728;27;20662;-74
2023/09/24 10:06:44;;;;;;;1.10;0.90;;;16.70;63.70;;;;;;5120007;27;20192;-75
2023/09/24 10:09:39;;;;;;;1.10;0.90;;;16.70;64.20;;;;;;5114471;27;20192;-73
2023/09/24 10:12:07;;;;;;;2.20;1.00;;;16.60;64.30;;;;;;5116199;27;20275;-71
2023/09/24 10:14:37;;;;;;;3.37;1.03;;;16.60;63.40;;;;;;5095066;27;20189;-72
2023/09/24 10:17:25;;;;;;;5.43;1.00;;;16.60;63.30;;;;;;5114835;27;20536;-73
2023/09/24 10:20:08;;;;;;;2.37;1.23;;;16.60;63.20;;;;;;5113178;27;20663;-73
2023/09/24 10:22:39;;;;;;;2.30;0.90;;;16.50;63.30;;;;;;5112410;27;20202;-76
2023/09/24 10:25:39;;;;;;;2.13;0.97;;;16.60;63.10;;;;;;5115797;27;20184;-77
2023/09/24 10:28:08;;;;;;;2.37;1.10;;;16.50;63.60;;;;;;5115798;27;20212;-78
2023/09/24 10:31:08;;;;;;;5.50;0.87;;;16.60;63.60;;;;;;5116513;27;20181;-75
2023/09/24 10:33:55;;;;;;;2.17;1.20;;;16.50;63.80;;;;;;5115549;27;20269;-76
2023/09/24 10:36:29;;;;;;;4.87;1.20;;;16.50;63.90;;;;;;5117190;27;20224;-76
2023/09/24 10:39:11;;;;;;;4.17;0.90;;;16.40;64.00;;;;;;5114438;27;20225;-77
2023/09/24 10:42:10;;;;;;;2.77;1.40;;;16.40;63.80;;;;;;5116087;27;20262;-75
2023/09/24 10:44:39;;;;;;;6.73;1.20;;;16.40;64.00;;;;;;5115782;27;20186;-75
2023/09/24 10:47:56;;;;;;;2.13;0.90;;;16.40;64.20;;;;;;5116339;28;20218;-79
2023/09/24 10:50:23;;;;;;;2.90;0.97;;;16.40;64.20;;;;;;5119384;27;20190;-77
2023/09/24 10:52:50;;;;;;;3.40;1.27;;;16.40;64.40;;;;;;5120284;27;20206;-75
2023/09/24 10:55:30;;;;;;;2.87;1.10;;;16.40;64.60;;;;;;5129716;27;20208;-76
2023/09/24 10:58:17;;;;;;;3.93;1.13;;;16.40;64.70;;;;;;5132899;28;20220;-76
2023/09/24 11:00:52;;;;;;;1.57;1.00;;;16.40;64.90;;;;;;5123535;27;20211;-77
2023/09/24 11:03:20;;;;;;;3.40;1.10;;;16.40;65.00;;;;;;5120781;27;20196;-76
2023/09/24 11:05:52;;;;;;;2.03;1.17;;;16.30;65.20;;;;;;5103516;27;20322;-76
2023/09/24 11:08:31;;;;;;;1.30;1.00;;;16.30;65.40;;;;;;5121875;27;20215;-75
2023/09/24 11:10:58;;;;;;;1.97;1.00;;;16.30;65.70;;;;;;5117703;27;20580;-74
2023/09/24 11:13:25;;;;;;;2.30;0.97;;;16.30;66.00;;;;;;5116379;27;20178;-77
2023/09/24 11:15:53;;;;;;;3.20;1.00;;;16.30;66.00;;;;;;5115177;27;20177;-77
2023/09/24 11:18:21;;;;;;;4.37;1.17;;;16.20;66.20;;;;;;5110989;28;20184;-77
2023/09/24 11:20:52;;;;;;;2.40;0.87;;;16.20;66.20;;;;;;5114276;27;20204;-77
2023/09/24 11:23:20;;;;;;;5.20;1.10;;;16.30;66.50;;;;;;5115622;27;20189;-77
2023/09/24 11:25:49;;;;;;;5.00;0.90;;;16.20;66.70;;;;;;5095298;28;20279;-75
2023/09/24 11:28:19;;;;;;;3.67;1.07;;;16.20;66.90;;;;;;5114246;27;20217;-73
2023/09/24 11:30:49;;;;;;;5.33;1.23;;;16.20;66.80;;;;;;5113178;27;20189;-77
2023/09/24 11:33:20;;;;;;;6.07;1.43;;;16.20;66.90;;;;;;5118622;27;20193;-74
2023/09/24 11:35:50;;;;;;;2.90;1.30;;;16.20;66.70;;;;;;5114172;27;20260;-76
2023/09/24 11:38:37;;;;;;;1.17;1.00;;;16.20;67.00;;;;;;5114027;27;20207;-74
2023/09/24 11:41:14;;;;;;;3.87;1.23;;;16.10;67.10;;;;;;5113472;27;20208;-73
2023/09/24 11:43:43;;;;;;;2.33;1.17;;;16.00;67.40;;;;;;5119384;27;20187;-75
2023/09/24 11:46:38;;;;;;;4.60;1.80;;;16.00;67.60;;;;;;5110632;27;20261;-78
2023/09/24 11:49:06;;;;;;;6.57;1.50;;;16.00;67.80;;;;;;5110951;27;20247;-77
2023/09/24 11:51:35;;;;;;;5.30;1.53;;;15.90;67.80;;;;;;5116763;27;20189;-77
2023/09/24 11:54:03;;;;;;;3.33;1.10;;;15.90;67.90;;;;;;5114782;27;20303;-77
2023/09/24 11:56:34;;;;;;;10.03;1.27;;;15.90;68.20;;;;;;5120519;27;20198;-80
2023/09/24 11:59:01;;;;;;;4.27;1.20;;;15.90;68.50;;;;;;5115267;27;20185;-80
2023/09/24 12:01:29;;;;;;;7.30;1.60;;;15.80;68.60;;;;;;5120732;27;20184;-78
2023/09/24 12:03:56;;;;;;;4.93;1.87;;;15.80;68.60;;;;;;5115068;27;20183;-77
2023/09/24 12:06:23;;;;;;;3.73;1.60;;;15.60;68.90;;;;;;5101749;27;20177;-79
2023/09/24 12:08:51;;;;;;;4.23;1.90;;;15.60;69.50;;;;;;5112375;27;20299;-76
2023/09/24 12:11:18;;;;;;;3.50;1.73;;;15.50;69.60;;;;;;5110312;27;20260;-78
2023/09/24 12:13:45;;;;;;;3.93;1.80;;;15.30;70.10;;;;;;5122167;28;20184;-78
2023/09/24 12:16:14;;;;;;;5.73;2.50;;;15.30;70.60;;;;;;5117929;28;20181;-78
2023/09/24 12:18:41;;;;;;;5.23;2.20;;;15.20;70.70;;;;;;5120293;28;20266;-79
2023/09/24 12:21:09;;;;;;;7.80;4.33;;;15.20;71.20;;;;;;5107002;28;20667;-78
2023/09/24 12:23:36;;;;;;;5.13;3.80;;;15.10;71.70;;;;;;5118389;28;20308;-78
2023/09/24 12:26:03;;;;;;;5.33;3.10;;;15.10;71.70;;;;;;5112742;28;20184;-78
2023/09/24 12:28:32;;;;;;;4.93;2.23;;;15.00;71.90;;;;;;5114842;28;20722;-80
2023/09/24 12:30:59;;;;;;;5.53;2.33;;;14.90;72.00;;;;;;5112906;28;20177;-78
2023/09/24 12:33:27;;;;;;;4.70;2.00;;;14.90;72.50;;;;;;5117624;28;20180;-77
2023/09/24 12:35:55;;;;;;;4.53;1.77;;;14.80;73.00;;;;;;5114766;27;20217;-77
2023/09/24 12:38:22;;;;;;;2.90;1.57;;;14.90;72.90;;;;;;5118996;27;20199;-79
2023/09/24 12:40:50;;;;;;;4.63;1.90;;;14.80;72.90;;;;;;5117806;28;20182;-79
2023/09/24 12:43:17;;;;;;;3.57;2.20;;;14.80;73.10;;;;;;5096443;28;20584;-78
2023/09/24 12:45:44;;;;;;;3.30;1.83;;;14.80;73.00;;;;;;5118236;27;20705;-80
2023/09/24 12:48:12;;;;;;;1.87;1.70;;;14.80;73.30;;;;;;5116906;28;20205;-79
2023/09/24 12:50:39;;;;;;;4.07;1.53;;;14.70;73.30;;;;;;5109592;28;20568;-77
2023/09/24 12:53:06;;;;;;;2.80;1.70;;;14.70;73.60;;;;;;5095886;28;20178;-77
2023/09/24 12:55:34;;;;;;;3.53;1.50;;;14.60;73.60;;;;;;5115030;27;20181;-78
2023/09/24 12:58:01;;;;;;;1.63;1.50;;;14.50;73.70;;;;;;5114840;28;20179;-77